Time;durP1;ratioP1;P1;durP2;ratioP2;P2;SDS_P1;SDS_P2;PMS_P1;PMS_P2;Temp;Humidity;BMP_temperature;BMP_pressure;BME280_temperature;BME280_humidity;BME280_pressure;Samples;Min_cycle;Max_cycle;Signal;HPM_P1;HPM_P2
2023/10/26 00:00:17;;;;;;;2.40;0.70;;;;;;;11.36;79.49;93870.25;6123926;23;20179;-82
2023/10/26 00:02:42;;;;;;;1.40;0.73;;;;;;;11.30;79.61;93876.22;6099401;23;20190;-82
2023/10/26 00:05:08;;;;;;;0.73;0.60;;;;;;;11.21;79.27;93872.19;6099227;23;20170;-81
2023/10/26 00:07:33;;;;;;;1.50;0.60;;;;;;;11.24;79.23;93864.03;6125694;23;20196;-81
2023/10/26 00:09:58;;;;;;;0.60;0.50;;;;;;;11.34;78.45;93862.66;6124498;23;20159;-82
2023/10/26 00:12:24;;;;;;;0.80;0.60;;;;;;;11.27;78.94;93861.81;6123993;23;20183;-81
2023/10/26 00:14:49;;;;;;;1.27;0.53;;;;;;;11.24;79.32;93866.63;6123904;23;20148;-82
2023/10/26 00:17:15;;;;;;;2.03;0.70;;;;;;;11.27;79.05;93861.81;6124495;23;20159;-81
2023/10/26 00:19:40;;;;;;;2.87;1.17;;;;;;;11.16;79.38;93869.38;6126038;23;20160;-83
2023/10/26 00:22:05;;;;;;;1.00;0.50;;;;;;;11.26;79.30;93870.63;6099089;23;20223;-81
2023/10/26 00:24:31;;;;;;;1.27;0.67;;;;;;;11.24;79.72;93866.63;6122974;23;20159;-82
2023/10/26 00:26:58;;;;;;;1.20;0.70;;;;;;;11.33;79.14;93870.66;6099022;23;20180;-83
2023/10/26 00:29:23;;;;;;;2.57;0.63;;;;;;;11.36;79.26;93867.66;6099754;23;20246;-81
2023/10/26 00:31:48;;;;;;;3.13;0.90;;;;;;;11.39;78.62;93863.88;6099901;23;20602;-82
2023/10/26 00:34:14;;;;;;;1.50;0.70;;;;;;;11.41;78.72;93865.31;6098547;23;20510;-82
2023/10/26 00:36:39;;;;;;;1.90;1.63;;;;;;;11.18;79.14;93867.38;6099314;23;20612;-81
2023/10/26 00:39:04;;;;;;;1.87;0.70;;;;;;;11.20;78.80;93853.19;6099897;23;20242;-82
2023/10/26 00:41:30;;;;;;;1.87;0.70;;;;;;;11.26;78.08;93864.63;6148437;23;20214;-81
2023/10/26 00:43:56;;;;;;;1.20;0.60;;;;;;;11.12;78.38;93860.34;6123406;23;20171;-83
2023/10/26 00:46:21;;;;;;;1.37;0.50;;;;;;;11.32;77.59;93859.47;6125213;23;20569;-83
2023/10/26 00:48:49;;;;;;;2.80;0.60;;;;;;;11.21;78.46;93866.97;6099383;23;20176;-84
2023/10/26 00:51:14;;;;;;;0.70;0.60;;;;;;;11.21;78.58;93860.00;6099166;23;20187;-83
2023/10/26 00:53:40;;;;;;;0.70;0.70;;;;;;;11.27;78.38;93855.81;6099466;23;20171;-82
2023/10/26 00:56:06;;;;;;;0.60;0.43;;;;;;;11.24;78.60;93862.22;6098534;23;20163;-81
2023/10/26 00:58:32;;;;;;;0.70;0.60;;;;;;;11.28;78.53;93857.44;6098914;23;20176;-82
2023/10/26 01:00:57;;;;;;;1.30;0.60;;;;;;;11.25;78.29;93860.41;6099411;23;20158;-82
2023/10/26 01:03:24;;;;;;;0.77;0.60;;;;;;;11.29;78.39;93864.22;6123743;23;20152;-81
2023/10/26 01:05:49;;;;;;;3.17;0.80;;;;;;;11.26;78.56;93859.44;6123079;23;20220;-82
2023/10/26 01:08:14;;;;;;;1.13;0.67;;;;;;;11.31;78.52;93864.84;6122188;23;20282;-81
2023/10/26 01:10:40;;;;;;;0.70;0.70;;;;;;;11.38;78.06;93872.66;6099217;23;20218;-81
2023/10/26 01:13:05;;;;;;;1.23;0.90;;;;;;;11.21;78.58;93866.97;6099218;23;20206;-84
2023/10/26 01:15:30;;;;;;;1.70;0.90;;;;;;;11.26;78.39;93867.22;6123262;23;20156;-81
2023/10/26 01:17:56;;;;;;;0.90;0.60;;;;;;;11.17;78.09;93863.19;6108228;23;20187;-83
2023/10/26 01:20:21;;;;;;;2.87;1.00;;;;;;;11.26;77.99;93867.22;6119611;23;20163;-83
2023/10/26 01:22:46;;;;;;;2.50;0.90;;;;;;;11.21;78.24;93867.78;6114233;23;20167;-82
2023/10/26 01:25:12;;;;;;;0.97;0.57;;;;;;;11.31;77.77;93867.47;6152113;23;20163;-84
2023/10/26 01:27:38;;;;;;;0.50;0.50;;;;;;;11.20;78.16;93873.19;6127757;23;20578;-83
2023/10/26 01:30:04;;;;;;;2.00;0.70;;;;;;;11.28;77.78;93875.63;6127882;23;20211;-83
2023/10/26 01:32:30;;;;;;;2.43;1.30;;;;;;;11.17;77.93;93863.97;6103386;23;20537;-83
2023/10/26 01:34:55;;;;;;;1.43;0.70;;;;;;;11.31;77.56;93847.47;6102112;23;20160;-83
2023/10/26 01:37:20;;;;;;;0.60;0.60;;;;;;;11.29;77.55;93854.63;6151562;23;20156;-81
2023/10/26 01:39:46;;;;;;;0.80;0.80;;;;;;;11.17;77.02;93860.59;6102542;23;20163;-84
2023/10/26 01:42:12;;;;;;;0.97;0.60;;;;;;;11.04;77.61;93853.50;6125694;23;20156;-84
2023/10/26 01:44:38;;;;;;;1.47;0.60;;;;;;;11.10;77.82;93855.34;6125815;23;20599;-83
2023/10/26 01:47:04;;;;;;;1.27;0.53;;;;;;;11.01;77.93;93841.69;6101685;23;20243;-83
2023/10/26 01:49:30;;;;;;;2.17;0.80;;;;;;;10.93;78.06;93856.63;6101674;23;20240;-83
2023/10/26 01:51:55;;;;;;;0.73;0.70;;;;;;;10.93;77.47;93862.63;6126164;23;20218;-83
2023/10/26 01:54:20;;;;;;;0.80;0.60;;;;;;;10.92;78.01;93848.03;6125534;23;20604;-82
2023/10/26 01:56:45;;;;;;;0.50;0.50;;;;;;;10.81;78.30;93852.97;6125845;23;20160;-83
2023/10/26 01:59:11;;;;;;;0.90;0.67;;;;;;;10.97;77.48;93855.28;6125941;23;20179;-82
2023/10/26 02:01:36;;;;;;;0.60;0.50;;;;;;;10.90;77.75;93870.81;6125604;23;20155;-83
2023/10/26 02:04:02;;;;;;;0.60;0.60;;;;;;;10.72;78.36;93849.72;6124931;23;20156;-81
2023/10/26 02:06:27;;;;;;;0.60;0.60;;;;;;;10.72;78.49;93857.50;6125122;23;20161;-82
2023/10/26 02:08:52;;;;;;;1.80;0.60;;;;;;;10.63;78.03;93843.06;6123864;23;20662;-82
2023/10/26 02:11:18;;;;;;;2.97;0.60;;;;;;;10.74;77.63;93845.13;6100164;23;20159;-83
2023/10/26 02:13:43;;;;;;;1.23;0.60;;;;;;;10.81;77.56;93850.38;6125011;23;20167;-82
2023/10/26 02:16:09;;;;;;;1.50;0.73;;;;;;;10.79;77.50;93842.78;6099905;23;20167;-83
2023/10/26 02:18:34;;;;;;;2.53;0.60;;;;;;;10.64;77.71;93831.69;6099963;23;20567;-82
2023/10/26 02:21:00;;;;;;;1.47;1.00;;;;;;;10.63;77.68;93838.69;6100080;23;20156;-81
2023/10/26 02:23:26;;;;;;;2.30;0.57;;;;;;;10.49;77.86;93842.97;6100383;23;20674;-82
2023/10/26 02:25:51;;;;;;;1.43;0.50;;;;;;;10.45;77.57;93841.75;6098565;23;20163;-82
2023/10/26 02:28:19;;;;;;;0.67;0.60;;;;;;;10.50;77.46;93841.97;6100663;23;20188;-82
2023/10/26 02:30:45;;;;;;;3.40;0.57;;;;;;;10.37;77.78;93833.28;6125510;23;20542;-82
2023/10/26 02:33:11;;;;;;;1.47;0.60;;;;;;;10.36;78.16;93839.47;6099891;23;20160;-82
2023/10/26 02:35:38;;;;;;;2.63;0.60;;;;;;;10.27;77.85;93836.22;6099144;23;20175;-83
2023/10/26 02:38:04;;;;;;;0.43;0.40;;;;;;;10.42;76.97;93842.13;6100084;23;20180;-84
2023/10/26 02:40:29;;;;;;;2.23;0.50;;;;;;;10.40;77.21;93831.13;6099167;23;20218;-84
2023/10/26 02:42:54;;;;;;;0.60;0.40;;;;;;;10.46;76.74;93834.75;6148376;23;20825;-82
2023/10/26 02:45:20;;;;;;;1.87;0.60;;;;;;;10.30;77.30;93838.44;6098486;23;20160;-82
2023/10/26 02:47:45;;;;;;;0.53;0.40;;;;;;;10.33;77.23;93834.66;6099112;23;20199;-83
2023/10/26 02:50:10;;;;;;;0.40;0.40;;;;;;;10.35;77.11;93841.28;6100624;23;20156;-81
2023/10/26 02:52:37;;;;;;;1.57;0.63;;;;;;;10.28;77.44;93837.81;6150124;23;20168;-81
2023/10/26 02:55:04;;;;;;;0.50;0.50;;;;;;;10.22;77.56;93833.38;6123633;23;20155;-82
2023/10/26 02:57:30;;;;;;;0.90;0.60;;;;;;;10.26;77.44;93839.00;6100307;23;20497;-82
2023/10/26 02:59:55;;;;;;;1.20;0.50;;;;;;;10.20;77.66;93833.53;6100011;23;20168;-83
2023/10/26 03:02:20;;;;;;;0.93;0.70;;;;;;;10.26;77.35;93847.59;6124555;23;20159;-81
2023/10/26 03:04:46;;;;;;;2.00;0.80;;;;;;;10.27;77.77;93833.63;6098582;23;20210;-82
2023/10/26 03:07:11;;;;;;;0.70;0.60;;;;;;;10.28;77.35;93835.22;6147469;23;20203;-81
2023/10/26 03:09:37;;;;;;;0.97;0.60;;;;;;;10.17;77.83;93839.09;6099272;23;20258;-81
2023/10/26 03:12:03;;;;;;;0.50;0.50;;;;;;;10.17;77.97;93838.28;6099188;23;20548;-82
2023/10/26 03:14:29;;;;;;;1.13;0.53;;;;;;;10.17;77.94;93838.28;6123075;23;20140;-83
2023/10/26 03:16:54;;;;;;;2.30;0.70;;;;;;;10.25;77.51;93834.78;6099720;23;20184;-81
2023/10/26 03:19:19;;;;;;;2.27;0.60;;;;;;;10.26;77.75;93829.44;6099274;23;20180;-82
2023/10/26 03:21:45;;;;;;;1.97;0.80;;;;;;;10.23;77.51;93832.38;6099338;23;20190;-84
2023/10/26 03:24:10;;;;;;;0.47;0.47;;;;;;;10.16;77.86;93831.50;6122927;23;20211;-81
2023/10/26 03:26:36;;;;;;;1.80;0.63;;;;;;;10.14;77.48;93834.25;6099762;23;20227;-82
2023/10/26 03:29:02;;;;;;;1.40;0.60;;;;;;;10.13;77.47;93834.47;6099234;23;20180;-84
2023/10/26 03:31:27;;;;;;;0.67;0.50;;;;;;;10.07;78.03;93841.22;6099450;23;20166;-83
2023/10/26 03:33:53;;;;;;;1.80;0.50;;;;;;;9.96;78.86;93844.28;6098678;23;20238;-81
2023/10/26 03:36:19;;;;;;;0.70;0.70;;;;;;;9.93;78.66;93852.44;6123968;23;20210;-84
2023/10/26 03:38:45;;;;;;;1.03;0.60;;;;;;;9.90;78.86;93850.22;6099335;23;20175;-81
2023/10/26 03:41:11;;;;;;;1.83;0.60;;;;;;;9.87;79.01;93853.16;6099122;23;20152;-84
2023/10/26 03:43:36;;;;;;;0.80;0.70;;;;;;;9.86;79.28;93851.56;6123349;23;20175;-81
2023/10/26 03:46:02;;;;;;;4.03;0.80;;;;;;;9.80;79.71;93853.09;6123122;23;20664;-81
2023/10/26 03:48:28;;;;;;;1.73;0.90;;;;;;;9.70;79.38;93837.03;6099461;23;20215;-81
2023/10/26 03:50:53;;;;;;;1.53;0.70;;;;;;;9.70;80.25;93842.22;6148700;23;20287;-81
2023/10/26 03:53:18;;;;;;;0.60;0.60;;;;;;;9.85;79.40;93847.38;6124756;23;20623;-82
2023/10/26 03:55:44;;;;;;;1.63;0.60;;;;;;;9.91;79.12;93844.03;6123816;23;20672;-83
2023/10/26 03:58:12;;;;;;;1.33;0.60;;;;;;;9.87;79.36;93838.41;6099446;23;20180;-82
2023/10/26 04:00:37;;;;;;;0.60;0.60;;;;;;;9.80;80.48;93845.31;6098769;23;20481;-82
2023/10/26 04:03:02;;;;;;;1.27;0.40;;;;;;;9.81;80.43;93838.38;6099563;23;20166;-83
2023/10/26 04:05:28;;;;;;;2.00;0.50;;;;;;;9.78;80.41;93838.72;6122835;23;20592;-82
2023/10/26 04:07:56;;;;;;;1.23;0.50;;;;;;;9.79;80.71;93833.34;6121972;23;20195;-82
2023/10/26 04:10:21;;;;;;;2.23;0.60;;;;;;;9.83;79.75;93837.19;6099124;23;20222;-82
2023/10/26 04:12:46;;;;;;;0.97;0.70;;;;;;;9.84;79.96;93827.63;6123128;23;20172;-83
2023/10/26 04:15:12;;;;;;;1.00;0.80;;;;;;;9.84;80.31;93840.56;6146756;23;20287;-82
2023/10/26 04:17:37;;;;;;;1.97;0.97;;;;;;;9.86;80.31;93841.19;6124947;23;20172;-80
2023/10/26 04:20:03;;;;;;;1.73;0.80;;;;;;;9.86;80.06;93836.81;6107255;23;20164;-83
2023/10/26 04:22:28;;;;;;;0.93;0.50;;;;;;;9.86;80.00;93838.59;6170610;23;20216;-82
2023/10/26 04:24:54;;;;;;;1.57;0.60;;;;;;;9.88;79.75;93839.19;6116472;23;20504;-85
2023/10/26 04:27:19;;;;;;;1.80;0.70;;;;;;;9.82;79.84;93830.41;6129230;23;20187;-85
2023/10/26 04:29:45;;;;;;;0.70;0.70;;;;;;;9.83;79.95;93838.97;6129245;23;20785;-83
2023/10/26 04:32:10;;;;;;;1.60;0.90;;;;;;;9.82;80.12;93840.75;6128472;23;20227;-85
2023/10/26 04:34:36;;;;;;;0.50;0.50;;;;;;;9.78;79.87;93836.13;6103271;23;20164;-85
2023/10/26 04:37:02;;;;;;;2.97;0.60;;;;;;;9.84;80.01;93831.00;6103962;23;20156;-83
2023/10/26 04:39:28;;;;;;;1.60;0.50;;;;;;;9.81;79.86;93830.59;6102785;23;20523;-83
2023/10/26 04:41:53;;;;;;;2.27;0.80;;;;;;;9.82;80.21;93822.63;6127460;23;20160;-84
2023/10/26 04:44:18;;;;;;;2.10;0.67;;;;;;;9.86;79.94;93826.44;6151164;23;20547;-84
2023/10/26 04:46:44;;;;;;;1.23;0.60;;;;;;;9.76;79.69;93820.75;6102371;23;20231;-83
2023/10/26 04:49:09;;;;;;;1.83;0.63;;;;;;;9.75;80.23;93815.75;6151390;23;20176;-84
2023/10/26 04:51:35;;;;;;;0.97;0.70;;;;;;;9.69;80.54;93814.69;6126633;23;20164;-83
2023/10/26 04:54:00;;;;;;;2.10;0.60;;;;;;;9.62;80.07;93824.19;6124741;23;20163;-83
2023/10/26 04:56:25;;;;;;;1.10;0.70;;;;;;;9.55;80.66;93818.97;6102057;23;20913;-84
2023/10/26 04:58:51;;;;;;;1.20;0.67;;;;;;;9.49;81.02;93813.69;6126392;23;20183;-84
2023/10/26 05:01:16;;;;;;;0.67;0.53;;;;;;;9.40;81.16;93814.78;6100990;23;20168;-83
2023/10/26 05:03:41;;;;;;;2.83;0.73;;;;;;;9.45;81.13;93817.63;6125899;23;20433;-84
2023/10/26 05:06:07;;;;;;;0.60;0.60;;;;;;;9.40;81.39;93809.59;6125318;23;20496;-82
2023/10/26 05:08:32;;;;;;;0.63;0.60;;;;;;;9.35;81.37;93813.53;6100909;23;20191;-82
2023/10/26 05:10:58;;;;;;;1.37;0.60;;;;;;;9.34;81.84;93814.53;6124807;23;20499;-82
2023/10/26 05:13:24;;;;;;;1.40;0.73;;;;;;;9.37;82.04;93810.78;6100657;23;20663;-83
2023/10/26 05:15:49;;;;;;;1.03;0.80;;;;;;;9.30;82.46;93808.13;6099901;23;20238;-85
2023/10/26 05:18:14;;;;;;;2.60;0.67;;;;;;;9.30;82.63;93817.66;6100344;23;20187;-82
2023/10/26 05:20:39;;;;;;;0.80;0.63;;;;;;;9.36;82.41;93809.97;6100741;23;20156;-83
2023/10/26 05:23:06;;;;;;;1.57;0.77;;;;;;;9.32;82.51;93813.09;6124662;23;20171;-83
2023/10/26 05:25:32;;;;;;;2.47;1.23;;;;;;;9.38;82.19;93809.78;6099739;23;20223;-83
2023/10/26 05:27:57;;;;;;;1.33;0.97;;;;;;;9.35;83.01;93802.38;6125242;23;20187;-82
2023/10/26 05:30:23;;;;;;;2.70;1.00;;;;;;;9.33;82.39;93799.16;6100785;23;20163;-83
2023/10/26 05:32:48;;;;;;;3.63;1.43;;;;;;;9.35;82.55;93799.78;6100377;23;20490;-83
2023/10/26 05:35:14;;;;;;;2.43;1.43;;;;;;;9.39;82.60;93790.69;6100489;23;20171;-84
2023/10/26 05:37:39;;;;;;;2.77;1.80;;;;;;;9.39;82.67;93789.88;6150422;23;20226;-82
2023/10/26 05:40:05;;;;;;;2.30;1.10;;;;;;;9.39;82.97;93784.69;6099990;23;20238;-82
2023/10/26 05:42:30;;;;;;;1.80;1.23;;;;;;;9.37;82.85;93784.88;6124488;23;20631;-82
2023/10/26 05:44:56;;;;;;;1.43;1.10;;;;;;;9.43;83.00;93783.31;6098302;23;20168;-81
2023/10/26 05:47:22;;;;;;;1.37;0.90;;;;;;;9.41;83.33;93780.13;6123402;23;20191;-82
2023/10/26 05:49:47;;;;;;;1.93;1.13;;;;;;;9.45;83.12;93779.56;6123806;23;20155;-82
2023/10/26 05:52:12;;;;;;;1.77;1.00;;;;;;;9.47;83.12;93772.44;6123803;23;20156;-84
2023/10/26 05:54:38;;;;;;;1.53;1.43;;;;;;;9.49;83.33;93772.25;6097762;23;20171;-83
2023/10/26 05:57:03;;;;;;;4.37;1.80;;;;;;;9.49;83.77;93772.25;6123243;23;20182;-81
2023/10/26 05:59:29;;;;;;;2.43;1.40;;;;;;;9.50;83.62;93774.63;6122709;23;20180;-80
2023/10/26 06:01:54;;;;;;;3.47;1.37;;;;;;;9.50;84.48;93779.03;6098613;23;20542;-82
2023/10/26 06:04:19;;;;;;;1.53;1.27;;;;;;;9.56;84.48;93778.28;6097536;23;20186;-82
2023/10/26 06:06:45;;;;;;;4.30;1.10;;;;;;;9.56;84.19;93775.69;6097641;23;20164;-82
2023/10/26 06:09:10;;;;;;;1.37;1.07;;;;;;;9.51;85.07;93776.25;6097712;23;20180;-82
2023/10/26 06:11:36;;;;;;;1.47;1.30;;;;;;;9.61;84.73;93766.38;6099391;23;20217;-84
2023/10/26 06:14:01;;;;;;;1.23;0.90;;;;;;;9.58;85.48;93771.13;6121310;23;20176;-82
2023/10/26 06:16:26;;;;;;;1.77;1.00;;;;;;;9.57;85.56;93774.72;6097816;23;20164;-83
2023/10/26 06:18:51;;;;;;;1.77;1.27;;;;;;;9.57;86.07;93764.34;6098171;23;20223;-82
2023/10/26 06:21:17;;;;;;;1.30;1.00;;;;;;;9.69;85.87;93773.22;6099252;23;20156;-83
2023/10/26 06:23:42;;;;;;;3.43;0.90;;;;;;;9.62;86.66;93769.75;6123884;23;20160;-83
2023/10/26 06:26:09;;;;;;;1.63;1.00;;;;;;;9.58;87.41;93771.13;6124984;23;20159;-82
2023/10/26 06:28:34;;;;;;;2.53;1.00;;;;;;;9.61;87.17;93770.75;6149193;23;20195;-83
2023/10/26 06:31:10;;;;;;;3.43;1.13;;;;;;;9.72;87.20;93774.63;6100981;23;20183;-81
2023/10/26 06:33:36;;;;;;;1.83;0.97;;;;;;;9.71;87.58;93780.81;6127000;23;20179;-82
2023/10/26 06:36:02;;;;;;;3.60;1.13;;;;;;;9.77;87.46;93775.69;6125910;23;20163;-82
2023/10/26 06:38:28;;;;;;;1.30;1.20;;;;;;;9.71;87.81;93786.78;6126906;23;20250;-82
2023/10/26 06:40:54;;;;;;;1.20;0.97;;;;;;;9.65;88.31;93784.97;6102741;23;20627;-83
2023/10/26 06:43:20;;;;;;;1.47;0.83;;;;;;;9.75;88.25;93784.66;6101419;23;20247;-84
2023/10/26 06:45:45;;;;;;;3.53;1.30;;;;;;;9.79;88.53;93788.47;6102220;23;20188;-78
2023/10/26 06:48:11;;;;;;;1.80;1.10;;;;;;;9.90;87.83;93786.19;6105885;23;20202;-80
2023/10/26 06:50:37;;;;;;;0.80;0.67;;;;;;;9.86;87.92;93794.53;6105050;23;20290;-79
2023/10/26 06:53:05;;;;;;;1.53;0.90;;;;;;;9.89;88.23;93778.59;6152890;23;20167;-83
2023/10/26 06:55:33;;;;;;;1.37;0.83;;;;;;;9.79;89.19;93786.69;6100870;23;20166;-83
2023/10/26 06:57:59;;;;;;;1.73;0.80;;;;;;;9.95;88.40;93785.63;6100000;23;20651;-83
2023/10/26 07:00:24;;;;;;;2.13;1.03;;;;;;;10.00;88.23;93787.69;6125569;23;20152;-81
2023/10/26 07:02:50;;;;;;;4.90;1.30;;;;;;;10.07;88.52;93788.50;6126747;23;20160;-82
2023/10/26 07:05:16;;;;;;;2.87;1.10;;;;;;;10.10;88.53;93780.38;6103702;23;20631;-83
2023/10/26 07:07:41;;;;;;;2.93;0.87;;;;;;;10.09;88.66;93778.78;6104105;23;20195;-85
2023/10/26 07:10:14;;;;;;;3.37;1.30;;;;;;;10.23;88.21;93770.13;6130494;23;20685;-83
2023/10/26 07:12:39;;;;;;;0.93;0.93;;;;;;;10.37;87.75;93764.03;6103635;23;20176;-84
2023/10/26 07:15:05;;;;;;;1.80;0.80;;;;;;;10.33;88.04;93765.38;6102963;23;20162;-83
2023/10/26 07:17:30;;;;;;;1.77;1.03;;;;;;;10.33;87.91;93768.00;6099112;23;20160;-81
2023/10/26 07:19:56;;;;;;;2.10;1.00;;;;;;;10.25;87.95;93762.97;6129401;23;20160;-83
2023/10/26 07:22:21;;;;;;;2.87;1.00;;;;;;;10.40;87.36;93775.81;6127735;23;20156;-83
2023/10/26 07:24:47;;;;;;;2.37;1.20;;;;;;;10.49;87.64;93774.69;6117856;23;20152;-84
2023/10/26 07:27:12;;;;;;;3.73;1.20;;;;;;;10.50;87.66;93774.50;6136971;23;20602;-83
2023/10/26 07:29:37;;;;;;;2.57;1.17;;;;;;;10.57;87.41;93774.53;6110177;23;20184;-83
2023/10/26 07:32:03;;;;;;;2.03;1.00;;;;;;;10.56;87.47;93766.94;6101748;23;20160;-81
2023/10/26 07:34:28;;;;;;;2.60;1.20;;;;;;;10.57;87.89;93765.94;6102370;23;20168;-82
2023/10/26 07:36:53;;;;;;;1.47;0.90;;;;;;;10.61;87.45;93774.97;6103812;23;20162;-83
2023/10/26 07:39:19;;;;;;;3.07;1.00;;;;;;;10.61;87.53;93768.00;6103648;23;20180;-83
2023/10/26 07:41:44;;;;;;;2.80;1.10;;;;;;;10.52;88.39;93770.94;6103683;23;20180;-83
2023/10/26 07:44:09;;;;;;;3.53;0.93;;;;;;;10.64;88.22;93772.00;6102472;23;20192;-82
2023/10/26 07:46:35;;;;;;;2.00;1.10;;;;;;;10.55;88.63;93768.75;6125708;23;20170;-81
2023/10/26 07:49:00;;;;;;;1.20;1.10;;;;;;;10.64;88.02;93766.78;6126003;23;20187;-83
2023/10/26 07:51:26;;;;;;;5.03;1.23;;;;;;;10.66;88.00;93768.19;6102371;23;20172;-83
2023/10/26 07:53:51;;;;;;;1.53;1.23;;;;;;;10.54;88.55;93756.75;6128025;23;20156;-80
2023/10/26 07:56:16;;;;;;;1.73;1.00;;;;;;;10.67;88.13;93759.41;6126754;23;20175;-81
2023/10/26 07:58:41;;;;;;;1.40;1.30;;;;;;;10.50;89.18;93764.09;6102852;23;20172;-83
2023/10/26 08:01:09;;;;;;;5.93;2.30;;;;;;;10.68;88.44;93766.22;6125611;23;20915;-82
2023/10/26 08:03:34;;;;;;;13.83;6.67;;;;;;;10.62;88.92;93755.81;6101051;23;20179;-83
2023/10/26 08:06:00;;;;;;;16.37;8.83;;;;;;;10.83;87.62;93750.53;6075809;23;20549;-83
2023/10/26 08:08:29;;;;;;;10.90;6.80;;;;;;;10.96;87.80;93758.38;6101169;23;20220;-83
2023/10/26 08:11:09;;;;;;;4.70;4.13;;;;;;;11.05;87.09;93756.44;6125342;23;20171;-83
2023/10/26 08:13:35;;;;;;;2.10;1.80;;;;;;;10.93;88.50;93756.16;6127358;23;20191;-81
2023/10/26 08:16:00;;;;;;;1.77;1.50;;;;;;;10.92;87.89;93748.56;6100319;23;20560;-84
2023/10/26 08:18:26;;;;;;;1.50;1.30;;;;;;;11.10;87.62;93746.25;6100893;23;20572;-83
2023/10/26 08:20:53;;;;;;;1.60;1.20;;;;;;;11.15;87.13;93753.47;6101077;23;20608;-82
2023/10/26 08:23:19;;;;;;;3.60;1.20;;;;;;;11.03;87.43;93753.19;6124948;23;20155;-84
2023/10/26 08:25:45;;;;;;;2.43;1.50;;;;;;;11.25;86.97;93740.91;6101567;23;20163;-85
2023/10/26 08:28:10;;;;;;;2.33;1.57;;;;;;;11.38;86.88;93743.53;6127859;23;20307;-85
2023/10/26 08:30:37;;;;;;;3.27;1.70;;;;;;;11.34;87.01;93742.31;6102157;23;20220;-82
2023/10/26 08:33:04;;;;;;;5.47;1.70;;;;;;;11.31;87.13;93742.72;6151629;23;20164;-83
2023/10/26 08:35:30;;;;;;;2.03;1.50;;;;;;;11.26;87.29;93745.09;6150704;23;20178;-82
2023/10/26 08:37:55;;;;;;;2.10;1.40;;;;;;;11.42;86.23;93749.16;6101301;23;20172;-85
2023/10/26 08:40:21;;;;;;;2.07;1.87;;;;;;;11.51;86.56;93743.56;6100244;23;20164;-81
2023/10/26 08:42:46;;;;;;;3.30;1.53;;;;;;;11.50;87.03;93754.97;6113656;23;20183;-82
2023/10/26 08:45:19;;;;;;;3.00;1.40;;;;;;;11.46;87.61;93764.13;6125869;23;20160;-82
2023/10/26 08:47:48;;;;;;;1.60;1.50;;;;;;;11.25;88.22;93764.28;6149131;23;20239;-83
2023/10/26 08:50:14;;;;;;;2.30;1.40;;;;;;;11.49;87.63;93776.75;6151163;23;20140;-81
2023/10/26 08:52:42;;;;;;;3.30;1.50;;;;;;;11.48;88.63;93775.13;6126864;23;20194;-81
2023/10/26 08:55:08;;;;;;;2.37;1.47;;;;;;;11.58;88.14;93767.78;6126093;23;20154;-83
2023/10/26 08:57:36;;;;;;;2.93;1.70;;;;;;;11.49;88.76;93758.56;6126395;23;20156;-80
2023/10/26 09:00:05;;;;;;;1.90;1.70;;;;;;;11.61;88.41;93749.19;6102696;23;20203;-82
2023/10/26 09:02:31;;;;;;;6.77;1.50;;;;;;;11.59;88.42;93751.19;6152085;23;20136;-81
2023/10/26 09:05:01;;;;;;;2.43;1.50;;;;;;;11.61;89.38;93750.97;6150771;23;20152;-82
2023/10/26 09:07:26;;;;;;;2.40;1.47;;;;;;;11.68;89.29;93757.00;6116835;23;20231;-83
2023/10/26 09:09:52;;;;;;;2.33;1.30;;;;;;;11.58;90.12;93759.97;6099899;23;20163;-82
2023/10/26 09:12:17;;;;;;;1.20;1.07;;;;;;;11.70;90.11;93756.78;6148052;23;20178;-82
2023/10/26 09:14:57;;;;;;;19.67;12.83;;;;;;;11.55;91.06;93775.94;6098126;23;20198;-81
2023/10/26 09:17:27;;;;;;;5.50;5.00;;;;;;;11.14;93.46;93783.84;6099486;23;20155;-83
2023/10/26 09:19:53;;;;;;;2.80;2.60;;;;;;;11.37;92.65;93782.69;6124872;23;20163;-83
2023/10/26 09:22:18;;;;;;;2.57;2.03;;;;;;;11.25;93.64;93790.25;6122560;23;20215;-84
2023/10/26 09:24:43;;;;;;;3.30;1.83;;;;;;;11.07;94.98;93803.78;6098203;23;20153;-83
2023/10/26 09:27:18;;;;;;;2.47;1.60;;;;;;;11.30;93.66;93796.47;6124897;23;20183;-84
2023/10/26 09:29:44;;;;;;;3.10;1.60;;;;;;;11.18;94.24;93784.25;6099210;23;20159;-84
2023/10/26 09:32:09;;;;;;;3.60;2.70;;;;;;;11.27;93.85;93790.88;6121990;23;20163;-84
2023/10/26 09:34:42;;;;;;;3.80;2.10;;;;;;;11.32;93.74;93781.50;6098160;23;20171;-83
2023/10/26 09:37:09;;;;;;;5.40;4.90;;;;;;;11.26;94.86;93789.28;6125691;23;20147;-83
2023/10/26 09:39:39;;;;;;;4.20;3.40;;;;;;;11.24;95.12;93796.47;6104245;23;20183;-82
2023/10/26 09:42:09;;;;;;;3.13;1.47;;;;;;;11.12;96.18;93800.59;6079831;23;20170;-86
2023/10/26 09:44:36;;;;;;;1.73;1.20;;;;;;;11.29;95.88;93799.25;6125595;23;20612;-84
2023/10/26 09:47:02;;;;;;;1.33;1.23;;;;;;;11.38;95.28;93798.09;6102743;23;20190;-85
2023/10/26 09:49:27;;;;;;;2.30;1.37;;;;;;;11.56;94.70;93800.94;6127277;23;20572;-84
2023/10/26 09:51:53;;;;;;;2.10;2.00;;;;;;;11.68;94.62;93813.41;6125242;23;20214;-84
2023/10/26 09:54:21;;;;;;;3.37;2.43;;;;;;;11.78;94.12;93798.22;6123708;23;20170;-84
2023/10/26 09:56:58;;;;;;;6.77;5.70;;;;;;;11.74;94.39;93797.00;6100368;23;20170;-84
2023/10/26 09:59:24;;;;;;;10.17;8.90;;;;;;;11.88;94.40;93794.25;6099613;23;20175;-82
2023/10/26 10:01:49;;;;;;;27.03;23.33;;;;;;;11.89;94.69;93795.06;6150204;23;20239;-82
2023/10/26 10:04:18;;;;;;;17.17;14.07;;;;;;;11.90;94.54;93788.84;6124222;23;20152;-83
2023/10/26 10:06:54;;;;;;;26.17;23.20;;;;;;;12.08;94.16;93786.47;6125944;23;20650;-82
2023/10/26 10:09:24;;;;;;;7.67;6.03;;;;;;;12.17;93.05;93787.88;6099993;23;20183;-83
2023/10/26 10:12:13;;;;;;;7.27;6.57;;;;;;;12.23;93.48;93799.28;6101226;23;20156;-84
2023/10/26 10:14:57;;;;;;;9.53;8.57;;;;;;;12.28;93.32;93798.69;6149999;23;20208;-83
2023/10/26 10:17:43;;;;;;;6.43;5.37;;;;;;;12.27;93.00;93797.88;6125396;23;20207;-84
2023/10/26 10:20:14;;;;;;;9.20;7.13;;;;;;;12.43;92.56;93810.50;6125246;23;20678;-83
2023/10/26 10:22:39;;;;;;;8.37;6.73;;;;;;;12.16;93.81;93788.88;6125460;23;20171;-82
2023/10/26 10:25:11;;;;;;;5.10;4.70;;;;;;;12.43;93.01;93807.09;6124311;23;20164;-83
2023/10/26 10:27:37;;;;;;;5.70;5.13;;;;;;;12.56;92.41;93796.69;6100412;23;20648;-83
2023/10/26 10:30:05;;;;;;;10.93;9.57;;;;;;;12.65;92.61;93805.88;6101421;23;20160;-83
2023/10/26 10:32:52;;;;;;;4.43;3.30;;;;;;;12.72;92.22;93814.50;6151943;23;20164;-84
2023/10/26 10:35:21;;;;;;;7.87;7.17;;;;;;;12.68;92.43;93812.50;6127767;23;20215;-83
2023/10/26 10:38:11;;;;;;;2.90;2.30;;;;;;;12.67;91.71;93813.50;6124783;23;20241;-85
2023/10/26 10:40:38;;;;;;;1.37;1.23;;;;;;;12.69;91.92;93801.88;6149492;23;20168;-84
2023/10/26 10:43:04;;;;;;;2.87;1.60;;;;;;;12.77;91.94;93801.66;6099248;23;20669;-85
2023/10/26 10:45:29;;;;;;;2.13;1.60;;;;;;;12.81;91.58;93806.44;6122955;23;20152;-84
2023/10/26 10:47:54;;;;;;;1.80;1.40;;;;;;;12.85;91.35;93807.66;6124703;23;20188;-84
2023/10/26 10:50:21;;;;;;;2.73;2.23;;;;;;;12.93;91.43;93804.84;6148713;23;20168;-83
2023/10/26 10:52:47;;;;;;;3.13;2.83;;;;;;;13.03;90.54;93800.00;6123547;23;20194;-83
2023/10/26 10:55:20;;;;;;;3.17;2.73;;;;;;;12.98;90.93;93795.38;6122573;23;20160;-82
2023/10/26 10:57:53;;;;;;;2.53;2.13;;;;;;;12.93;90.56;93802.22;6148537;23;20199;-82
2023/10/26 11:00:19;;;;;;;4.47;3.17;;;;;;;12.84;90.86;93803.47;6100156;23;20156;-83
2023/10/26 11:02:49;;;;;;;1.40;1.30;;;;;;;12.85;91.52;93794.63;6100039;23;20159;-83
2023/10/26 11:05:16;;;;;;;2.37;2.17;;;;;;;12.87;91.74;93784.81;6100276;23;20164;-81
2023/10/26 11:07:41;;;;;;;1.23;1.10;;;;;;;12.71;92.15;93766.00;6100218;23;20272;-81
2023/10/26 11:10:08;;;;;;;2.13;1.67;;;;;;;12.67;92.68;93762.22;6125309;23;20172;-82
2023/10/26 11:12:33;;;;;;;1.73;1.30;;;;;;;12.71;93.73;93766.00;6101133;23;20172;-82
2023/10/26 11:14:58;;;;;;;1.73;1.40;;;;;;;13.29;90.52;93757.44;6126862;23;20294;-83
2023/10/26 11:17:24;;;;;;;1.70;1.60;;;;;;;13.28;90.28;93751.41;6151033;23;20159;-82
2023/10/26 11:19:50;;;;;;;1.97;1.10;;;;;;;13.03;89.82;93760.91;6102195;23;20210;-83
2023/10/26 11:22:17;;;;;;;1.20;1.10;;;;;;;13.66;86.83;93758.44;6151068;23;20465;-84
2023/10/26 11:24:43;;;;;;;1.50;1.40;;;;;;;13.89;86.99;93748.28;6137563;23;20183;-82
2023/10/26 11:27:13;;;;;;;1.93;1.40;;;;;;;14.10;87.04;93754.13;6108899;23;20175;-83
2023/10/26 11:29:40;;;;;;;2.13;1.00;;;;;;;14.24;86.53;93744.41;6130789;23;20255;-85
2023/10/26 11:32:24;;;;;;;0.77;0.77;;;;;;;14.24;85.48;93734.75;6129594;23;20162;-84